createdAt,value
2024-01-16T00:00:17.700Z,97779.12
2024-01-16T00:01:21.740Z,97781.80
2024-01-16T00:02:25.521Z,97786.12
2024-01-16T00:03:29.597Z,97783.45
2024-01-16T00:04:35.610Z,97790.65
2024-01-16T00:05:38.520Z,97796.00
2024-01-16T00:06:42.859Z,97802.17
2024-01-16T00:07:46.529Z,97804.84
2024-01-16T00:08:49.329Z,97812.05
2024-01-16T00:09:54.553Z,97804.02
2024-01-16T00:10:58.421Z,97796.00
2024-01-16T00:12:03.241Z,97795.02
2024-01-16T00:13:06.726Z,97792.34
2024-01-16T00:14:21.211Z,97795.02
2024-01-16T00:15:24.370Z,97793.16
2024-01-16T00:16:28.034Z,97789.50
2024-01-16T00:17:30.835Z,97789.50
2024-01-16T00:18:34.652Z,97786.67
2024-01-16T00:19:37.682Z,97783.02
2024-01-16T00:20:42.228Z,97785.69
2024-01-16T00:21:49.535Z,97777.66
2024-01-16T00:22:52.335Z,97772.31
2024-01-16T00:23:55.089Z,97773.14
2024-01-16T00:24:58.478Z,97768.11
2024-01-16T00:26:02.158Z,97770.78
2024-01-16T00:27:07.543Z,97784.00
2024-01-16T00:28:11.200Z,97776.13
2024-01-16T00:29:14.467Z,97786.67
2024-01-16T00:30:18.544Z,97779.48
2024-01-16T00:31:22.512Z,97782.31
2024-01-16T00:32:26.091Z,97787.50
2024-01-16T00:33:29.933Z,97785.69
2024-01-16T00:34:33.009Z,97783.02
2024-01-16T00:35:36.349Z,97781.17
2024-01-16T00:36:39.722Z,97779.48
2024-01-16T00:37:42.582Z,97783.02
2024-01-16T00:38:46.628Z,97783.84
2024-01-16T00:39:49.810Z,97776.80
2024-01-16T00:40:53.513Z,97776.80
2024-01-16T00:41:56.250Z,97776.80
2024-01-16T00:42:58.962Z,97783.02
2024-01-16T00:44:02.262Z,97777.66
2024-01-16T00:45:06.553Z,97774.98
2024-01-16T00:46:10.209Z,97768.78
2024-01-16T00:47:12.952Z,97759.77
2024-01-16T00:48:16.585Z,97764.29
2024-01-16T00:49:22.004Z,97761.77
2024-01-16T00:50:26.095Z,97765.28
2024-01-16T00:51:28.970Z,97762.60
2024-01-16T00:52:32.366Z,97768.78
2024-01-16T00:53:40.926Z,97768.11
2024-01-16T00:54:43.985Z,97771.61
2024-01-16T00:55:47.820Z,97776.13
2024-01-16T00:56:53.811Z,97779.63
2024-01-16T00:57:57.695Z,97780.63
2024-01-16T00:59:02.004Z,97771.77
2024-01-16T01:00:06.648Z,97774.45
2024-01-16T01:01:10.284Z,97776.29
2024-01-16T01:02:14.569Z,97782.47
2024-01-16T01:03:17.925Z,97780.78
2024-01-16T01:04:21.983Z,97778.97
2024-01-16T01:05:27.398Z,97777.28
2024-01-16T01:06:30.372Z,97770.08
2024-01-16T01:07:35.820Z,97766.58
2024-01-16T01:08:38.592Z,97767.41
2024-01-16T01:09:42.187Z,97763.91
2024-01-16T01:10:45.194Z,97774.60
2024-01-16T01:12:00.997Z,97763.91
2024-01-16T01:13:04.693Z,97767.41
2024-01-16T01:14:07.675Z,97765.75
2024-01-16T01:15:11.279Z,97771.09
2024-01-16T01:16:14.807Z,97763.08
2024-01-16T01:17:18.042Z,97761.23
2024-01-16T01:18:21.349Z,97765.75
2024-01-16T01:19:24.554Z,97762.06
2024-01-16T01:20:29.169Z,97765.75
2024-01-16T01:21:31.921Z,97763.08
2024-01-16T01:22:37.956Z,97774.60
2024-01-16T01:23:40.916Z,97771.09
2024-01-16T01:24:43.663Z,97761.23
2024-01-16T01:25:46.909Z,97759.38
2024-01-16T01:26:49.912Z,97758.56
2024-01-16T01:27:52.934Z,97760.24
2024-01-16T01:28:57.380Z,97762.06
2024-01-16T01:30:00.670Z,97754.03
2024-01-16T01:31:03.723Z,97755.88
2024-01-16T01:32:08.681Z,97764.73
2024-01-16T01:34:25.267Z,97764.64
2024-01-16T01:35:29.606Z,97766.58
2024-01-16T01:36:32.421Z,97770.08
2024-01-16T01:38:47.890Z,97774.36
2024-01-16T01:39:52.125Z,97778.11
2024-01-16T01:40:55.992Z,97767.41
2024-01-16T01:41:59.164Z,97767.41
2024-01-16T01:43:22.977Z,97767.41
2024-01-16T01:44:26.137Z,97770.94
2024-01-16T01:45:29.096Z,97772.76
2024-01-16T01:46:33.013Z,97776.45
2024-01-16T01:47:35.876Z,97774.60
2024-01-16T01:48:40.707Z,97774.60
2024-01-16T01:49:43.580Z,97783.45
2024-01-16T01:50:47.095Z,97785.30
2024-01-16T01:51:50.147Z,97787.14
2024-01-16T01:52:52.777Z,97790.65
2024-01-16T01:53:55.558Z,97795.17
2024-01-16T01:54:59.788Z,97794.31
2024-01-16T01:56:04.255Z,97782.78
2024-01-16T01:57:09.727Z,97798.83
2024-01-16T01:58:13.589Z,97802.33
2024-01-16T01:59:18.972Z,97802.33
2024-01-16T02:00:22.452Z,97810.36
2024-01-16T02:01:26.565Z,97819.23
2024-01-16T02:02:30.219Z,97821.91
2024-01-16T02:04:48.459Z,97808.30
2024-01-16T02:05:52.412Z,97812.20
2024-01-16T02:06:58.241Z,97801.50
2024-01-16T02:08:01.254Z,97801.50
2024-01-16T02:09:06.752Z,97798.67
2024-01-16T02:10:11.261Z,97806.70
2024-01-16T02:11:15.556Z,97804.84
2024-01-16T02:12:18.526Z,97803.03
2024-01-16T02:13:23.879Z,97797.84
2024-01-16T02:14:26.732Z,97796.83
2024-01-16T02:15:29.783Z,97788.96
2024-01-16T02:16:38.836Z,97789.81
2024-01-16T02:17:42.007Z,97787.14
2024-01-16T02:18:44.912Z,97790.65
2024-01-16T02:19:48.252Z,97787.14
2024-01-16T02:20:53.655Z,97791.63
2024-01-16T02:21:59.789Z,97787.14
2024-01-16T02:24:16.191Z,97788.88
2024-01-16T02:25:19.319Z,97783.61
2024-01-16T02:26:23.754Z,97788.13
2024-01-16T02:27:27.269Z,97779.28
2024-01-16T02:28:30.013Z,97777.44
2024-01-16T02:29:32.924Z,97780.94
2024-01-16T02:30:36.998Z,97784.47
2024-01-16T02:31:39.809Z,97780.94
2024-01-16T02:32:43.996Z,97781.80
2024-01-16T02:33:46.949Z,97779.95
2024-01-16T02:34:51.017Z,97779.95
2024-01-16T02:35:53.875Z,97772.91
2024-01-16T02:36:56.960Z,97784.47
2024-01-16T02:39:13.118Z,97777.03
2024-01-16T02:40:17.819Z,97777.28
2024-01-16T02:41:21.221Z,97780.78
2024-01-16T02:42:24.447Z,97785.30
2024-01-16T02:43:28.082Z,97783.45
2024-01-16T02:44:31.122Z,97786.12
2024-01-16T02:45:35.071Z,97790.49
2024-01-16T02:46:39.671Z,97792.18
2024-01-16T02:47:43.671Z,97792.18
2024-01-16T02:48:47.332Z,97789.50
2024-01-16T02:49:51.590Z,97787.81
2024-01-16T02:50:54.428Z,97790.49
2024-01-16T02:51:57.119Z,97792.18
2024-01-16T02:52:59.710Z,97789.50
2024-01-16T02:54:03.512Z,97789.50
2024-01-16T02:55:19.973Z,97792.02
2024-01-16T02:56:23.521Z,97797.53
2024-01-16T02:57:26.281Z,97795.68
2024-01-16T02:58:30.535Z,97803.55
2024-01-16T02:59:33.442Z,97798.20
2024-01-16T03:00:37.769Z,97797.38
2024-01-16T03:01:40.939Z,97792.85
2024-01-16T03:04:06.104Z,97790.09
2024-01-16T03:05:10.538Z,97787.66
2024-01-16T03:06:22.857Z,97784.00
2024-01-16T03:07:26.241Z,97785.84
2024-01-16T03:08:29.002Z,97784.98
2024-01-16T03:09:33.141Z,97784.98
2024-01-16T03:10:36.747Z,97785.84
2024-01-16T03:11:39.485Z,97786.52
2024-01-16T03:12:43.109Z,97785.69
2024-01-16T03:13:46.745Z,97787.50
2024-01-16T03:14:50.567Z,97786.67
2024-01-16T03:15:53.349Z,97789.34
2024-01-16T03:16:56.281Z,97792.02
2024-01-16T03:19:16.343Z,97797.13
2024-01-16T03:20:19.586Z,97798.36
2024-01-16T03:21:22.638Z,97795.68
2024-01-16T03:22:26.241Z,97798.20
2024-01-16T03:23:30.422Z,97803.55
2024-01-16T03:24:34.877Z,97798.20
2024-01-16T03:25:39.307Z,97806.22
2024-01-16T03:26:43.170Z,97801.73
2024-01-16T03:27:46.471Z,97805.23
2024-01-16T03:28:49.356Z,97790.80
2024-01-16T03:29:52.802Z,97790.80
2024-01-16T03:30:58.711Z,97804.41
2024-01-16T03:32:01.564Z,97803.55
2024-01-16T03:33:05.616Z,97802.72
2024-01-16T03:34:10.286Z,97803.55
2024-01-16T03:35:13.179Z,97807.08
2024-01-16T03:36:17.225Z,97810.59
2024-01-16T03:37:20.262Z,97811.58
2024-01-16T03:38:23.043Z,97810.74
2024-01-16T03:39:26.061Z,97821.28
2024-01-16T03:40:29.437Z,97808.07
2024-01-16T03:41:32.463Z,97805.39
2024-01-16T03:42:36.096Z,97805.39
2024-01-16T03:43:38.742Z,97799.06
2024-01-16T03:44:41.948Z,97801.73
2024-01-16T03:45:44.662Z,97798.05
2024-01-16T03:46:47.704Z,97797.21
2024-01-16T03:47:50.876Z,97790.02
2024-01-16T03:48:53.996Z,97793.55
2024-01-16T03:49:56.512Z,97785.30
2024-01-16T03:50:59.242Z,97785.30
2024-01-16T03:52:02.196Z,97796.23
2024-01-16T03:53:05.163Z,97798.05
2024-01-16T03:54:08.309Z,97793.70
2024-01-16T03:55:11.656Z,97792.85
2024-01-16T03:56:17.322Z,97795.52
2024-01-16T03:57:20.124Z,97798.20
2024-01-16T03:58:23.495Z,97789.34
2024-01-16T03:59:26.185Z,97786.67
2024-01-16T04:00:29.091Z,97786.67
2024-01-16T04:01:34.569Z,97776.80
2024-01-16T04:02:38.444Z,97788.36
2024-01-16T04:03:42.547Z,97799.89
2024-01-16T04:04:45.909Z,97793.70
2024-01-16T04:05:49.245Z,97787.50
2024-01-16T04:06:52.334Z,97790.17
2024-01-16T04:07:55.396Z,97779.48
2024-01-16T04:08:58.658Z,97777.82
2024-01-16T04:10:02.158Z,97778.65
2024-01-16T04:11:06.143Z,97782.15
2024-01-16T04:12:10.252Z,97776.80
2024-01-16T04:13:13.198Z,97776.80
2024-01-16T04:14:17.693Z,97781.17
2024-01-16T04:15:23.609Z,97779.48
2024-01-16T04:16:27.393Z,97783.02
2024-01-16T04:17:30.926Z,97779.32
2024-01-16T04:19:51.990Z,97781.78
2024-01-16T04:20:55.061Z,97784.54
2024-01-16T04:21:57.774Z,97788.88
2024-01-16T04:23:00.918Z,97783.37
2024-01-16T04:24:04.555Z,97784.23
2024-01-16T04:25:09.105Z,97780.53
2024-01-16T04:26:13.586Z,97778.88
2024-01-16T04:27:16.256Z,97786.04
2024-01-16T04:28:19.987Z,97784.23
2024-01-16T04:29:23.134Z,97789.58
2024-01-16T04:30:26.919Z,97789.58
2024-01-16T04:31:31.796Z,97800.95
2024-01-16T04:32:36.067Z,97796.45
2024-01-16T04:33:39.679Z,97799.95
2024-01-16T04:34:42.866Z,97802.63
2024-01-16T04:35:45.802Z,97806.14
2024-01-16T04:36:48.980Z,97808.81
2024-01-16T04:37:52.583Z,97797.13
2024-01-16T04:39:00.903Z,97809.52
2024-01-16T04:40:04.085Z,97803.30
2024-01-16T04:41:07.325Z,97802.31
2024-01-16T04:42:10.141Z,97804.16
2024-01-16T04:43:14.794Z,97800.63
2024-01-16T04:44:18.421Z,97800.63
2024-01-16T04:45:21.928Z,97800.79
2024-01-16T04:46:26.110Z,97798.11
2024-01-16T04:47:28.888Z,97804.48
2024-01-16T04:48:31.788Z,97802.63
2024-01-16T04:49:35.879Z,97808.97
2024-01-16T04:50:40.757Z,97809.95
2024-01-16T04:51:43.558Z,97805.47
2024-01-16T04:52:47.394Z,97805.78
2024-01-16T04:53:51.743Z,97817.31
2024-01-16T04:54:54.766Z,97810.27
2024-01-16T04:55:57.609Z,97811.29
2024-01-16T04:57:00.891Z,97813.97
2024-01-16T04:58:04.883Z,97813.10
2024-01-16T04:59:07.573Z,97810.59
2024-01-16T05:00:12.186Z,97820.45
2024-01-16T05:01:15.130Z,97805.39
2024-01-16T05:02:18.921Z,97815.27
2024-01-16T05:03:22.845Z,97808.23
2024-01-16T05:04:25.818Z,97805.55
2024-01-16T05:05:30.438Z,97809.05
2024-01-16T05:06:33.585Z,97808.89
2024-01-16T05:07:36.903Z,97799.89
2024-01-16T05:08:40.088Z,97811.58
2024-01-16T05:09:44.846Z,97803.55
2024-01-16T05:10:48.641Z,97801.73
2024-01-16T05:11:51.571Z,97804.25
2024-01-16T05:12:54.385Z,97812.27
2024-01-16T05:13:58.823Z,97812.12
2024-01-16T05:15:01.601Z,97816.48
2024-01-16T05:16:06.640Z,97816.48
2024-01-16T05:17:11.132Z,97812.63
2024-01-16T05:18:13.994Z,97817.98
2024-01-16T05:19:17.872Z,97823.33
2024-01-16T05:20:22.901Z,97817.98
2024-01-16T05:21:25.889Z,97815.47
2024-01-16T05:22:29.272Z,97827.02
2024-01-16T05:23:33.181Z,97819.98
2024-01-16T05:24:36.570Z,97816.48
2024-01-16T05:25:39.687Z,97814.79
2024-01-16T05:26:43.296Z,97812.12
2024-01-16T05:27:46.103Z,97814.79
2024-01-16T05:28:49.255Z,97815.78
2024-01-16T05:29:53.499Z,97821.98
2024-01-16T05:30:56.964Z,97818.61
2024-01-16T05:32:00.811Z,97823.95
2024-01-16T05:33:05.214Z,97820.30
2024-01-16T05:34:09.796Z,97814.09
2024-01-16T05:35:12.796Z,97824.79
2024-01-16T05:36:16.676Z,97822.97
2024-01-16T05:37:20.020Z,97831.16
2024-01-16T05:38:22.930Z,97825.80
2024-01-16T05:39:26.437Z,97831.16
2024-01-16T05:40:29.689Z,97831.16
2024-01-16T05:41:36.702Z,97827.62
2024-01-16T05:42:39.837Z,97840.16
2024-01-16T05:43:42.589Z,97835.64
2024-01-16T05:44:45.950Z,97832.14
2024-01-16T05:45:51.117Z,97834.81
2024-01-16T05:46:54.000Z,97847.20
2024-01-16T05:47:57.423Z,97838.16
2024-01-16T05:49:00.891Z,97833.83
2024-01-16T05:50:05.251Z,97833.83
2024-01-16T05:51:08.433Z,97835.64
2024-01-16T05:52:11.432Z,97825.26
2024-01-16T05:53:14.287Z,97829.08
2024-01-16T05:54:17.747Z,97830.92
2024-01-16T05:55:22.166Z,97835.44
2024-01-16T05:56:25.717Z,97832.89
2024-01-16T05:57:44.012Z,97842.76
2024-01-16T05:58:50.592Z,97839.41
2024-01-16T05:59:54.305Z,97844.05
2024-01-16T06:00:58.250Z,97846.05
2024-01-16T06:02:01.984Z,97847.19
2024-01-16T06:03:07.558Z,97851.84
2024-01-16T06:04:13.528Z,97847.50
2024-01-16T06:05:15.007Z,97840.62
2024-01-16T06:06:19.786Z,97839.36
2024-01-16T06:07:22.663Z,97839.36
2024-01-16T06:08:27.272Z,97843.17
2024-01-16T06:09:32.837Z,97851.63
2024-01-16T06:10:36.338Z,97842.10
2024-01-16T06:11:41.053Z,97853.78
2024-01-16T06:12:44.425Z,97852.23
2024-01-16T06:13:47.047Z,97849.72
2024-01-16T06:14:52.427Z,97847.20
2024-01-16T06:15:55.747Z,97855.38
2024-01-16T06:16:59.744Z,97858.20
2024-01-16T06:19:15.342Z,97853.22
2024-01-16T06:20:21.530Z,97849.07
2024-01-16T06:21:25.335Z,97850.08
2024-01-16T06:22:29.011Z,97856.41
2024-01-16T06:23:32.381Z,97856.56
2024-01-16T06:24:38.123Z,97864.42
2024-01-16T06:25:42.516Z,97859.23
2024-01-16T06:26:46.104Z,97866.39
2024-01-16T06:27:50.772Z,97867.41
2024-01-16T06:28:53.454Z,97860.52
2024-01-16T06:29:56.718Z,97865.16
2024-01-16T06:30:59.655Z,97867.00
2024-01-16T06:32:02.353Z,97874.30
2024-01-16T06:33:05.420Z,97868.28
2024-01-16T06:35:24.091Z,97871.89
2024-01-16T06:36:27.220Z,97863.39
2024-01-16T06:37:30.342Z,97866.22
2024-01-16T06:38:34.432Z,97869.00
2024-01-16T06:39:38.400Z,97872.69
2024-01-16T06:40:43.758Z,97866.63
2024-01-16T06:41:46.737Z,97880.97
2024-01-16T06:42:50.393Z,97856.70
2024-01-16T06:43:54.052Z,97856.70
2024-01-16T06:44:56.972Z,97875.25
2024-01-16T06:45:59.676Z,97870.89
2024-01-16T06:47:02.721Z,97866.52
2024-01-16T06:48:05.936Z,97875.40
2024-01-16T06:49:16.276Z,97871.03
2024-01-16T06:50:20.283Z,97873.70
2024-01-16T06:51:24.568Z,97869.49
2024-01-16T06:52:27.398Z,97874.16
2024-01-16T06:53:31.379Z,97874.16
2024-01-16T06:54:34.504Z,97875.96
2024-01-16T06:55:38.314Z,97874.16
2024-01-16T06:56:42.058Z,97878.63
2024-01-16T06:57:46.880Z,97871.48
2024-01-16T06:58:50.401Z,97870.62
2024-01-16T06:59:54.000Z,97868.81
2024-01-16T07:00:58.872Z,97868.81
2024-01-16T07:02:02.615Z,97869.64
2024-01-16T07:03:05.872Z,97868.81
2024-01-16T07:04:09.158Z,97864.30
2024-01-16T07:05:13.316Z,97867.95
2024-01-16T07:06:16.654Z,97870.62
2024-01-16T07:07:20.271Z,97865.28
2024-01-16T07:08:23.851Z,97870.47
2024-01-16T07:09:27.898Z,97862.46
2024-01-16T07:10:30.993Z,97865.99
2024-01-16T07:11:33.980Z,97880.17
2024-01-16T07:12:37.495Z,97867.66
2024-01-16T07:13:41.510Z,97871.03
2024-01-16T07:14:45.249Z,97873.86
2024-01-16T07:15:47.910Z,97877.66
2024-01-16T07:16:51.858Z,97876.94
2024-01-16T07:17:55.825Z,97879.77
2024-01-16T07:19:00.195Z,97876.27
2024-01-16T07:20:04.442Z,97876.27
2024-01-16T07:21:22.650Z,97873.44
2024-01-16T07:22:25.933Z,97869.80
2024-01-16T07:23:29.410Z,97877.66
2024-01-16T07:24:32.827Z,97875.96
2024-01-16T07:25:38.146Z,97880.33
2024-01-16T07:26:42.861Z,97883.98
2024-01-16T07:27:48.019Z,97879.50
2024-01-16T07:28:50.757Z,97881.30
2024-01-16T07:29:55.111Z,97879.61
2024-01-16T07:30:58.922Z,97875.96
2024-01-16T07:32:02.987Z,97875.96
2024-01-16T07:33:06.163Z,97883.14
2024-01-16T07:34:09.160Z,97874.27
2024-01-16T07:35:14.011Z,97872.61
2024-01-16T07:36:18.061Z,97860.09
2024-01-16T07:37:20.814Z,97880.77
2024-01-16T07:38:23.963Z,97874.72
2024-01-16T07:39:27.792Z,97875.02
2024-01-16T07:40:30.788Z,97874.19
2024-01-16T07:41:33.969Z,97871.52
2024-01-16T07:42:36.703Z,97865.16
2024-01-16T07:43:39.900Z,97870.95
2024-01-16T07:44:44.046Z,97870.95
2024-01-16T07:45:46.841Z,97903.14
2024-01-16T07:46:50.470Z,97879.38
2024-01-16T07:47:54.988Z,97887.66
2024-01-16T07:48:59.216Z,97879.94
2024-01-16T07:50:05.241Z,97875.19
2024-01-16T07:51:07.275Z,97882.92
2024-01-16T07:52:11.667Z,97875.21
2024-01-16T07:53:15.864Z,97883.63
2024-01-16T07:54:18.582Z,97882.52
2024-01-16T07:55:24.413Z,97877.62
2024-01-16T07:56:44.433Z,97894.06
2024-01-16T07:57:47.111Z,97881.13
2024-01-16T07:58:50.136Z,97877.62
2024-01-16T07:59:52.778Z,97888.16
2024-01-16T08:00:56.919Z,97890.68
2024-01-16T08:02:00.697Z,97890.53
2024-01-16T08:03:04.665Z,97892.38
2024-01-16T08:04:07.969Z,97880.30
2024-01-16T08:05:11.295Z,97881.56
2024-01-16T08:06:15.704Z,97883.66
2024-01-16T08:07:20.312Z,97899.81
2024-01-16T08:08:23.681Z,97896.16
2024-01-16T08:09:28.146Z,97888.30
2024-01-16T08:10:31.470Z,97894.62
2024-01-16T08:11:36.274Z,97884.92
2024-01-16T08:12:40.643Z,97894.77
2024-01-16T08:13:45.694Z,97896.70
2024-01-16T08:14:49.562Z,97875.52
2024-01-16T08:15:52.956Z,97888.13
2024-01-16T08:16:57.357Z,97880.81
2024-01-16T08:18:02.227Z,97898.92
2024-01-16T08:19:06.628Z,97886.84
2024-01-16T08:20:11.765Z,97891.60
2024-01-16T08:21:15.569Z,97893.58
2024-01-16T08:22:18.804Z,97892.16
2024-01-16T08:23:23.462Z,97903.08
2024-01-16T08:24:26.146Z,97906.46
2024-01-16T08:25:29.409Z,97903.94
2024-01-16T08:26:33.261Z,97914.02
2024-01-16T08:27:38.689Z,97879.94
2024-01-16T08:28:42.681Z,97899.70
2024-01-16T08:29:46.188Z,97911.74
2024-01-16T08:30:49.249Z,97905.66
2024-01-16T08:31:53.387Z,97897.39
2024-01-16T08:32:56.903Z,97902.72
2024-01-16T08:33:59.921Z,97911.13
2024-01-16T08:35:03.435Z,97899.36
2024-01-16T08:36:07.324Z,97904.55
2024-01-16T08:37:11.154Z,97900.19
2024-01-16T08:38:14.557Z,97898.53
2024-01-16T08:39:17.772Z,97906.38
2024-01-16T08:40:21.299Z,97899.22
2024-01-16T08:41:24.370Z,97916.62
2024-01-16T08:42:27.482Z,97894.06
2024-01-16T08:43:30.174Z,97907.38
2024-01-16T08:44:34.277Z,97910.33
2024-01-16T08:45:37.797Z,97907.94
2024-01-16T08:46:40.694Z,97901.05
2024-01-16T08:47:44.475Z,97897.53
2024-01-16T08:48:48.115Z,97918.84
2024-01-16T08:49:51.498Z,97902.86
2024-01-16T08:50:54.804Z,97926.83
2024-01-16T08:51:59.870Z,97902.99
2024-01-16T08:53:03.782Z,97902.16
2024-01-16T08:54:06.834Z,97912.82
2024-01-16T08:55:11.175Z,97923.34
2024-01-16T08:56:14.644Z,97920.95
2024-01-16T08:57:18.536Z,97897.39
2024-01-16T08:58:21.814Z,97924.27
2024-01-16T08:59:25.152Z,97916.28
2024-01-16T09:00:28.986Z,97922.33
2024-01-16T09:01:32.064Z,97922.33
2024-01-16T09:02:35.960Z,97938.31
2024-01-16T09:03:38.805Z,97918.80
2024-01-16T09:04:43.150Z,97927.66
2024-01-16T09:05:46.664Z,97933.55
2024-01-16T09:06:49.805Z,97922.64
2024-01-16T09:07:53.917Z,97928.53
2024-01-16T09:08:57.940Z,97930.91
2024-01-16T09:10:04.564Z,97933.20
2024-01-16T09:11:09.194Z,97938.94
2024-01-16T09:12:12.113Z,97941.50
2024-01-16T09:13:14.827Z,97942.61
2024-01-16T09:14:18.597Z,97925.17
2024-01-16T09:15:22.245Z,97925.17
2024-01-16T09:16:25.677Z,97935.55
2024-01-16T09:17:28.879Z,97937.48
2024-01-16T09:18:31.995Z,97933.44
2024-01-16T09:19:35.792Z,97943.50
2024-01-16T09:20:39.541Z,97943.64
2024-01-16T09:21:42.361Z,97940.11
2024-01-16T09:22:46.745Z,97942.91
2024-01-16T09:23:50.049Z,97941.25
2024-01-16T09:24:54.277Z,97948.65
2024-01-16T09:25:56.907Z,97945.67
2024-01-16T09:27:00.672Z,97935.98
2024-01-16T09:28:03.844Z,97933.22
2024-01-16T09:29:09.452Z,97947.64
2024-01-16T09:30:25.519Z,97927.99
2024-01-16T09:31:28.981Z,97938.41
2024-01-16T09:32:32.766Z,97954.52
2024-01-16T09:33:37.099Z,97951.13
2024-01-16T09:34:40.327Z,97949.57
2024-01-16T09:35:43.654Z,97937.47
2024-01-16T09:36:47.072Z,97949.11
2024-01-16T09:37:50.219Z,97942.92
2024-01-16T09:38:52.952Z,97934.11
2024-01-16T09:39:57.243Z,97939.16
2024-01-16T09:41:00.627Z,97946.77
2024-01-16T09:42:04.949Z,97958.98
2024-01-16T09:43:10.988Z,97947.64
2024-01-16T09:44:14.960Z,97958.77
2024-01-16T09:45:22.314Z,97954.81
2024-01-16T09:46:25.815Z,97950.03
2024-01-16T09:47:28.996Z,97949.43
2024-01-16T09:48:33.773Z,97945.61
2024-01-16T09:49:40.469Z,97951.47
2024-01-16T09:50:44.164Z,97957.16
2024-01-16T09:51:48.697Z,97947.88
2024-01-16T09:52:52.930Z,97945.22
2024-01-16T09:53:58.042Z,97949.17
2024-01-16T09:55:01.313Z,97951.47
2024-01-16T09:56:05.908Z,97940.42
2024-01-16T09:57:09.952Z,97947.44
2024-01-16T09:58:14.923Z,97949.83
2024-01-16T09:59:21.502Z,97970.03
2024-01-16T10:00:26.989Z,97952.36
2024-01-16T10:01:31.653Z,97961.72
2024-01-16T10:02:35.208Z,97960.09
2024-01-16T10:03:39.704Z,97947.55
2024-01-16T10:04:42.795Z,97945.98
2024-01-16T10:05:46.527Z,97955.66
2024-01-16T10:06:50.341Z,97949.24
2024-01-16T10:07:54.882Z,97971.96
2024-01-16T10:08:57.946Z,97973.79
2024-01-16T10:10:01.675Z,97966.91
2024-01-16T10:11:06.258Z,97948.55
2024-01-16T10:12:11.936Z,97971.76
2024-01-16T10:13:15.060Z,97973.95
2024-01-16T10:14:18.551Z,97959.61
2024-01-16T10:15:22.043Z,97980.41
2024-01-16T10:16:59.095Z,97958.44
2024-01-16T10:18:01.962Z,97975.61
2024-01-16T10:19:06.192Z,97998.38
2024-01-16T10:20:15.145Z,97976.48
2024-01-16T10:21:22.780Z,97973.33
2024-01-16T10:22:27.626Z,97978.58
2024-01-16T10:23:33.686Z,97963.33
2024-01-16T10:24:37.965Z,97972.14
2024-01-16T10:25:40.717Z,97960.66
2024-01-16T10:26:43.816Z,97973.70
2024-01-16T10:27:46.961Z,97978.19
2024-01-16T10:28:51.425Z,97961.50
2024-01-16T10:32:32.131Z,97984.81
2024-01-16T10:33:38.920Z,97991.23
2024-01-16T10:34:40.371Z,98003.92
2024-01-16T10:35:44.470Z,97970.48
2024-01-16T10:36:49.113Z,97990.53
2024-01-16T10:37:54.016Z,97980.89
2024-01-16T10:39:01.081Z,97969.39
2024-01-16T10:40:07.805Z,97979.06
2024-01-16T10:41:12.389Z,97979.67
2024-01-16T10:42:15.179Z,97982.07
2024-01-16T10:43:18.506Z,98002.25
2024-01-16T10:44:22.753Z,97991.23
2024-01-16T10:45:26.036Z,98026.44
2024-01-16T10:46:29.178Z,97996.42
2024-01-16T10:47:35.370Z,98019.16
2024-01-16T10:48:40.529Z,98013.49
2024-01-16T10:49:46.619Z,98006.86
2024-01-16T10:50:49.920Z,98015.92
2024-01-16T10:51:52.583Z,98001.80
2024-01-16T10:52:56.250Z,97998.27
2024-01-16T10:54:00.691Z,98009.03
2024-01-16T10:55:05.440Z,98012.43
2024-01-16T10:56:16.410Z,98004.45
2024-01-16T10:57:20.691Z,98010.13
2024-01-16T10:58:24.248Z,98009.75
2024-01-16T10:59:29.505Z,98019.03
2024-01-16T11:00:32.506Z,98005.61
2024-01-16T11:01:52.362Z,98015.41
2024-01-16T11:03:07.840Z,98012.89
2024-01-16T11:04:15.926Z,98018.08
2024-01-16T11:05:21.047Z,98022.78
2024-01-16T11:06:27.190Z,98013.11
2024-01-16T11:07:29.984Z,98020.25
2024-01-16T11:08:34.529Z,98025.31
2024-01-16T11:09:38.462Z,98036.30
2024-01-16T11:10:42.271Z,98034.16
2024-01-16T11:11:46.614Z,98033.20
2024-01-16T11:12:49.639Z,98038.52
2024-01-16T11:13:53.154Z,98034.99
2024-01-16T11:14:56.644Z,98024.97
2024-01-16T11:16:00.819Z,98045.02
2024-01-16T11:17:04.748Z,98027.84
2024-01-16T11:18:07.946Z,98052.14
2024-01-16T11:19:25.667Z,98045.56
2024-01-16T11:20:37.973Z,98043.51
2024-01-16T11:21:26.742Z,98032.87
2024-01-16T11:22:31.133Z,98051.36
2024-01-16T11:23:36.361Z,98048.70
2024-01-16T11:24:40.177Z,98060.44
2024-01-16T11:25:42.979Z,98034.83
2024-01-16T11:26:46.234Z,98033.00
2024-01-16T11:27:51.478Z,98033.13
2024-01-16T11:28:57.045Z,98042.06
2024-01-16T11:30:01.701Z,98044.73
2024-01-16T11:32:41.876Z,98060.78
2024-01-16T11:33:44.853Z,98077.16
2024-01-16T11:34:52.690Z,98053.83
2024-01-16T11:35:55.525Z,98049.34
2024-01-16T11:36:59.221Z,98052.74
2024-01-16T11:38:13.457Z,98056.23
2024-01-16T11:39:20.099Z,98051.91
2024-01-16T11:40:25.814Z,98050.34
2024-01-16T11:45:06.122Z,98060.47
2024-01-16T11:46:10.787Z,98087.34
2024-01-16T11:47:18.578Z,98062.77
2024-01-16T11:48:22.056Z,98076.06
2024-01-16T11:49:24.893Z,98097.11
2024-01-16T11:50:29.269Z,98083.95
2024-01-16T11:51:32.253Z,98085.12
2024-01-16T11:52:45.251Z,98070.04
2024-01-16T11:53:49.678Z,98080.45
2024-01-16T11:54:52.343Z,98083.59
2024-01-16T11:56:34.840Z,98085.88
2024-01-16T11:57:41.026Z,98107.03
2024-01-16T11:59:22.837Z,98094.94
2024-01-16T12:00:25.862Z,98090.71
2024-01-16T12:01:28.690Z,98094.58
2024-01-16T12:02:41.728Z,98093.63
2024-01-16T12:03:45.722Z,98102.34
2024-01-16T12:04:59.547Z,98108.23
2024-01-16T12:06:06.272Z,98093.73
2024-01-16T12:07:09.160Z,98101.33
2024-01-16T12:08:14.406Z,98101.94
2024-01-16T12:09:18.157Z,98109.08
2024-01-16T12:10:22.903Z,98114.27
2024-01-16T12:11:33.376Z,98102.29
2024-01-16T12:12:31.495Z,98123.92
2024-01-16T12:13:35.100Z,98109.15
2024-01-16T12:14:37.845Z,98109.63
2024-01-16T12:15:40.972Z,98124.38
2024-01-16T12:16:43.880Z,98130.02
2024-01-16T12:18:00.260Z,98126.87
2024-01-16T12:19:09.939Z,98134.37
2024-01-16T12:20:19.725Z,98129.80
2024-01-16T12:21:22.980Z,98152.81
2024-01-16T12:22:25.892Z,98137.70
2024-01-16T12:23:30.060Z,98129.37
2024-01-16T12:24:33.517Z,98135.90
2024-01-16T12:26:00.921Z,98140.13
2024-01-16T12:26:43.407Z,98137.12
2024-01-16T12:27:46.659Z,98141.94
2024-01-16T12:28:59.583Z,98164.06
2024-01-16T12:30:08.739Z,98155.37
2024-01-16T12:31:13.576Z,98157.55
2024-01-16T12:32:18.937Z,98145.11
2024-01-16T12:33:25.554Z,98152.09
2024-01-16T12:34:28.387Z,98140.75
2024-01-16T12:35:32.175Z,98151.27
2024-01-16T12:36:37.855Z,98144.86
2024-01-16T12:37:41.845Z,98153.41
2024-01-16T12:38:45.345Z,98158.26
2024-01-16T12:39:49.710Z,98145.53
2024-01-16T12:40:52.903Z,98161.15
2024-01-16T12:41:56.512Z,98158.11
2024-01-16T12:43:00.897Z,98160.29
2024-01-16T12:45:18.433Z,98145.47
2024-01-16T12:46:22.946Z,98148.74
2024-01-16T12:47:26.356Z,98150.56
2024-01-16T12:48:30.569Z,98159.64
2024-01-16T12:49:33.511Z,98146.47
2024-01-16T12:50:38.788Z,98164.13
2024-01-16T12:51:42.928Z,98161.34
2024-01-16T12:52:47.304Z,98175.23
2024-01-16T12:53:50.105Z,98189.05
2024-01-16T12:55:05.234Z,98169.48
2024-01-16T12:56:11.825Z,98163.84
2024-01-16T12:57:21.891Z,98182.80